< Typhoon 201109 2011 Season Typhoon 201111 >
Typhoon 201110 (MERBOK)
General InformationTrack Information on Google MapsDetailed Wind InformationAccess Analytics MapList of All Images || NewsDisaster Info.WeblogTrackbackTyphoon FrontTwiphoonTyphoon Now!Typhoon ImaginationResourceGoogle EarthGE AnimationAtom FeedGeoJSON
Detalied Best Track (Time Zone = UTC)
Year Month Day Hour Lat. Long. Pressure (hPa) Wind (kt) Class Image Chart
2011 8 2 18 23.2 163.0 1006 0 2 Image Chart
2011 8 3 00 23.2 161.8 1004 0 2 Image Chart
2011 8 3 06 23.2 160.5 1000 35 3 Image Chart
2011 8 3 12 23.2 159.8 1000 35 3 Image Chart
2011 8 3 18 23.5 159.1 1000 35 3 Image Chart
2011 8 4 00 24.4 158.3 1000 35 3 Image Chart
2011 8 4 06 24.7 157.2 998 35 3 Image Chart
2011 8 4 12 24.9 156.8 998 35 3 Image Chart
2011 8 4 18 25.2 156.4 998 35 3 Image Chart
2011 8 5 00 26.3 155.6 994 40 3 Image Chart
2011 8 5 06 26.9 155.3 990 45 3 Image Chart
2011 8 5 12 27.2 154.8 990 45 3 Image Chart
2011 8 5 18 27.5 154.4 990 45 3 Image Chart
2011 8 6 00 28.1 154.0 985 50 4 Image Chart
2011 8 6 06 28.7 153.8 985 50 4 Image Chart
2011 8 6 12 29.3 153.7 985 50 4 Image Chart
2011 8 6 18 30.2 153.7 985 50 4 Image Chart
2011 8 7 00 30.8 153.9 985 50 4 Image Chart
2011 8 7 06 31.6 154.1 985 50 4 Image Chart
2011 8 7 12 32.4 154.8 985 50 4 Image Chart
2011 8 7 18 33.1 155.5 980 50 4 Image Chart
2011 8 8 00 34.2 156.2 980 50 4 Image Chart
2011 8 8 06 35.7 157.7 980 50 4 Image Chart
2011 8 8 12 37.3 159.1 980 50 4 Image Chart
2011 8 8 18 39.1 160.2 980 50 4 Image Chart
2011 8 9 00 40.4 160.6 980 50 4 Image Chart
2011 8 9 06 41.3 161.2 985 45 3 Image Chart
2011 8 9 12 41.9 162.7 985 45 3 Image Chart
2011 8 9 18 43.3 164.1 988 0 6 Image Chart
2011 8 10 00 44.5 164.5 988 0 6 Image Chart
2011 8 10 06 45.4 165.4 988 0 6 Image Chart
2011 8 10 12 47.2 165.7 988 0 6 Image Chart
2011 8 10 18 48.7 165.9 988 0 6 Image Chart
2011 8 11 00 50.0 165.7 988 0 6 Image Chart
2011 8 11 06 50.8 166.4 990 0 6 Image Chart
2011 8 11 12 51.5 166.3 992 0 6 Image Chart
2011 8 11 18 52.0 166.4 996 0 6 Image Chart
2011 8 12 00 53.3 166.3 998 0 6 Image Chart
Japan Meteorological Agency Best Track Data | Correction Date : 2011-09-26
< Typhoon 201109 2011 Season Typhoon 201111 >

Help